createdAt,value
2022-09-06T00:00:03.844Z,99867.96
2022-09-06T00:00:13.972Z,99868.12
2022-09-06T00:00:23.853Z,99866.27
2022-09-06T00:00:33.892Z,99865.77
2022-09-06T00:00:43.958Z,99864.52
2022-09-06T00:00:53.867Z,99867.62
2022-09-06T00:01:03.901Z,99865.94
2022-09-06T00:01:13.872Z,99864.31
2022-09-06T00:01:23.907Z,99865.10
2022-09-06T00:01:33.879Z,99864.31
2022-09-06T00:01:43.884Z,99870.44
2022-09-06T00:01:53.942Z,99866.23
2022-09-06T00:02:03.850Z,99863.69
2022-09-06T00:02:14.017Z,99859.15
2022-09-06T00:02:23.971Z,99859.98
2022-09-06T00:02:34.019Z,99860.16
2022-09-06T00:02:44.039Z,99861.49
2022-09-06T00:02:54.098Z,99863.39
2022-09-06T00:03:04.061Z,99863.51
2022-09-06T00:03:13.940Z,99862.62
2022-09-06T00:03:23.849Z,99861.38
2022-09-06T00:03:33.952Z,99859.61
2022-09-06T00:03:44.034Z,99859.78
2022-09-06T00:03:54.007Z,99863.34
2022-09-06T00:04:03.955Z,99860.45
2022-09-06T00:04:15.509Z,99863.47
2022-09-06T00:04:23.920Z,99862.20
2022-09-06T00:04:33.942Z,99860.36
2022-09-06T00:04:43.910Z,99857.27
2022-09-06T00:04:53.926Z,99858.40
2022-09-06T00:05:03.923Z,99859.58
2022-09-06T00:05:13.847Z,99857.86
2022-09-06T00:05:23.886Z,99855.84
2022-09-06T00:05:33.962Z,99859.07
2022-09-06T00:05:43.866Z,99859.91
2022-09-06T00:05:53.884Z,99856.34
2022-09-06T00:06:03.949Z,99857.56
2022-09-06T00:06:13.981Z,99859.03
2022-09-06T00:06:23.947Z,99861.84
2022-09-06T00:06:33.871Z,99860.75
2022-09-06T00:06:43.874Z,99857.05
2022-09-06T00:06:53.937Z,99858.34
2022-09-06T00:07:03.964Z,99858.65
2022-09-06T00:07:13.972Z,99857.19
2022-09-06T00:07:23.915Z,99860.04
2022-09-06T00:07:33.867Z,99858.78
2022-09-06T00:07:43.924Z,99857.86
2022-09-06T00:07:53.974Z,99859.37
2022-09-06T00:08:03.921Z,99863.52
2022-09-06T00:08:13.951Z,99861.88
2022-09-06T00:08:23.998Z,99862.13
2022-09-06T00:08:33.969Z,99859.91
2022-09-06T00:08:45.262Z,99862.55
2022-09-06T00:08:53.941Z,99864.39
2022-09-06T00:09:03.942Z,99860.83
2022-09-06T00:09:13.977Z,99863.05
2022-09-06T00:09:23.968Z,99861.34
2022-09-06T00:09:33.882Z,99862.88
2022-09-06T00:09:43.916Z,99861.93
2022-09-06T00:09:53.946Z,99864.06
2022-09-06T00:10:03.959Z,99862.27
2022-09-06T00:10:13.882Z,99865.57
2022-09-06T00:10:23.911Z,99865.41
2022-09-06T00:10:33.873Z,99867.30
2022-09-06T00:10:43.954Z,99867.80
2022-09-06T00:10:56.789Z,99868.22
2022-09-06T00:11:03.921Z,99865.45
2022-09-06T00:11:13.858Z,99862.52
2022-09-06T00:11:23.900Z,99868.38
2022-09-06T00:11:33.908Z,99867.88
2022-09-06T00:11:43.888Z,99866.45
2022-09-06T00:11:53.882Z,99869.39
2022-09-06T00:12:03.906Z,99867.80
2022-09-06T00:12:13.910Z,99867.38
2022-09-06T00:12:23.911Z,99865.33
2022-09-06T00:12:33.865Z,99867.59
2022-09-06T00:12:43.894Z,99865.74
2022-09-06T00:12:53.949Z,99866.33
2022-09-06T00:13:03.977Z,99868.17
2022-09-06T00:13:13.953Z,99869.98
2022-09-06T00:13:23.871Z,99871.20
2022-09-06T00:13:33.879Z,99870.11
2022-09-06T00:13:43.952Z,99870.64
2022-09-06T00:13:53.959Z,99868.26
2022-09-06T00:14:03.975Z,99870.23
2022-09-06T00:14:13.958Z,99870.70
2022-09-06T00:14:23.889Z,99865.33
2022-09-06T00:14:33.887Z,99866.83
2022-09-06T00:14:43.913Z,99866.33
2022-09-06T00:14:53.955Z,99863.60
2022-09-06T00:15:03.945Z,99863.44
2022-09-06T00:15:13.872Z,99862.52
2022-09-06T00:15:23.878Z,99864.36
2022-09-06T00:15:33.952Z,99862.09
2022-09-06T00:15:44.026Z,99863.77
2022-09-06T00:15:53.935Z,99863.52
2022-09-06T00:16:03.990Z,99862.26
2022-09-06T00:16:13.994Z,99862.34
2022-09-06T00:16:28.419Z,99866.96
2022-09-06T00:16:33.869Z,99860.71
2022-09-06T00:16:43.866Z,99860.71
2022-09-06T00:16:53.867Z,99861.05
2022-09-06T00:17:03.923Z,99860.80
2022-09-06T00:17:13.849Z,99862.05
2022-09-06T00:17:23.934Z,99859.53
2022-09-06T00:17:33.937Z,99860.12
2022-09-06T00:17:43.874Z,99855.30
2022-09-06T00:17:53.849Z,99861.34
2022-09-06T00:18:03.934Z,99860.67
2022-09-06T00:18:13.847Z,99857.39
2022-09-06T00:18:23.983Z,99862.01
2022-09-06T00:18:33.897Z,99860.84
2022-09-06T00:18:43.850Z,99858.82
2022-09-06T00:18:55.935Z,99860.24
2022-09-06T00:19:03.910Z,99865.70
2022-09-06T00:19:13.855Z,99860.50
2022-09-06T00:19:23.884Z,99861.34
2022-09-06T00:19:33.918Z,99860.33
2022-09-06T00:19:43.899Z,99860.46
2022-09-06T00:19:53.924Z,99862.98
2022-09-06T00:20:03.874Z,99864.98
2022-09-06T00:20:13.844Z,99863.65
2022-09-06T00:20:23.871Z,99862.56
2022-09-06T00:20:33.970Z,99865.50
2022-09-06T00:20:43.918Z,99865.16
2022-09-06T00:20:53.848Z,99863.69
2022-09-06T00:21:03.935Z,99859.08
2022-09-06T00:21:13.895Z,99859.16
2022-09-06T00:21:23.961Z,99867.38
2022-09-06T00:21:33.913Z,99862.19
2022-09-06T00:21:43.911Z,99860.34
2022-09-06T00:21:53.907Z,99862.34
2022-09-06T00:22:03.952Z,99862.09
2022-09-06T00:22:13.879Z,99866.16
2022-09-06T00:22:23.971Z,99864.11
2022-09-06T00:22:33.855Z,99864.45
2022-09-06T00:22:43.932Z,99863.02
2022-09-06T00:22:53.952Z,99861.00
2022-09-06T00:23:03.860Z,99863.69
2022-09-06T00:23:13.870Z,99862.73
2022-09-06T00:23:23.903Z,99863.06
2022-09-06T00:23:33.959Z,99866.20
2022-09-06T00:23:43.894Z,99865.08
2022-09-06T00:23:53.935Z,99865.24
2022-09-06T00:24:03.950Z,99862.47
2022-09-06T00:24:13.884Z,99868.43
2022-09-06T00:24:23.920Z,99868.43
2022-09-06T00:24:33.964Z,99865.83
2022-09-06T00:24:43.922Z,99864.73
2022-09-06T00:24:53.936Z,99866.42
2022-09-06T00:25:03.957Z,99862.55
2022-09-06T00:25:13.947Z,99866.88
2022-09-06T00:25:23.967Z,99865.75
2022-09-06T00:25:33.979Z,99866.75
2022-09-06T00:25:43.872Z,99867.09
2022-09-06T00:25:53.930Z,99868.94
2022-09-06T00:26:03.913Z,99861.55
2022-09-06T00:26:13.924Z,99864.90
2022-09-06T00:26:23.974Z,99864.73
2022-09-06T00:26:33.963Z,99865.73
2022-09-06T00:26:43.978Z,99863.69
2022-09-06T00:26:53.904Z,99867.12
2022-09-06T00:27:03.871Z,99865.95
2022-09-06T00:27:13.886Z,99865.28
2022-09-06T00:27:23.888Z,99866.08
2022-09-06T00:27:33.880Z,99866.46
2022-09-06T00:27:43.850Z,99868.76
2022-09-06T00:27:53.857Z,99864.52
2022-09-06T00:28:03.910Z,99859.07
2022-09-06T00:28:13.956Z,99865.37
2022-09-06T00:28:23.941Z,99860.67
2022-09-06T00:28:37.395Z,99864.90
2022-09-06T00:28:43.848Z,99859.66
2022-09-06T00:28:53.960Z,99858.83
2022-09-06T00:29:03.856Z,99864.52
2022-09-06T00:29:13.897Z,99863.56
2022-09-06T00:29:23.915Z,99868.30
2022-09-06T00:29:33.930Z,99860.55
2022-09-06T00:29:46.310Z,99860.62
2022-09-06T00:29:53.969Z,99862.93
2022-09-06T00:30:03.916Z,99859.78
2022-09-06T00:30:13.980Z,99864.52
2022-09-06T00:30:23.913Z,99867.97
2022-09-06T00:30:33.878Z,99860.84
2022-09-06T00:30:43.917Z,99858.16
2022-09-06T00:30:53.993Z,99863.98
2022-09-06T00:31:04.035Z,99861.00
2022-09-06T00:31:13.932Z,99860.80
2022-09-06T00:31:24.150Z,99861.30
2022-09-06T00:31:33.982Z,99862.27
2022-09-06T00:31:43.864Z,99862.12
2022-09-06T00:31:53.929Z,99858.41
2022-09-06T00:32:03.960Z,99859.50
2022-09-06T00:32:13.921Z,99861.92
2022-09-06T00:32:23.876Z,99862.51
2022-09-06T00:32:33.875Z,99863.39
2022-09-06T00:32:43.856Z,99861.89
2022-09-06T00:32:53.889Z,99864.15
2022-09-06T00:33:03.946Z,99862.13
2022-09-06T00:33:13.934Z,99859.70
2022-09-06T00:33:23.880Z,99860.92
2022-09-06T00:33:33.924Z,99863.39
2022-09-06T00:33:43.871Z,99861.55
2022-09-06T00:33:53.851Z,99862.30
2022-09-06T00:34:03.849Z,99861.62
2022-09-06T00:34:13.907Z,99861.93
2022-09-06T00:34:23.939Z,99862.05
2022-09-06T00:34:33.856Z,99860.88
2022-09-06T00:34:43.871Z,99863.39
2022-09-06T00:34:53.922Z,99862.77
2022-09-06T00:35:03.973Z,99859.83
2022-09-06T00:35:13.910Z,99860.03
2022-09-06T00:35:23.944Z,99858.66
2022-09-06T00:35:33.873Z,99860.42
2022-09-06T00:35:43.848Z,99857.06
2022-09-06T00:35:53.866Z,99859.16
2022-09-06T00:36:03.872Z,99854.70
2022-09-06T00:36:13.853Z,99858.66
2022-09-06T00:36:23.854Z,99855.88
2022-09-06T00:36:33.866Z,99861.00
2022-09-06T00:36:44.649Z,99856.47
2022-09-06T00:36:53.957Z,99859.66
2022-09-06T00:37:03.912Z,99857.81
2022-09-06T00:37:13.891Z,99855.97
2022-09-06T00:37:23.906Z,99860.37
2022-09-06T00:37:33.857Z,99854.62
2022-09-06T00:37:43.876Z,99856.89
2022-09-06T00:37:53.876Z,99856.90
2022-09-06T00:38:03.913Z,99856.72
2022-09-06T00:38:13.902Z,99859.33
2022-09-06T00:38:23.907Z,99859.70
2022-09-06T00:38:33.925Z,99857.65
2022-09-06T00:38:43.903Z,99856.47
2022-09-06T00:38:53.958Z,99858.07
2022-09-06T00:39:03.850Z,99859.08
2022-09-06T00:39:13.976Z,99854.42
2022-09-06T00:39:23.987Z,99857.81
2022-09-06T00:39:33.935Z,99859.80
2022-09-06T00:39:44.023Z,99859.58
2022-09-06T00:39:53.897Z,99860.25
2022-09-06T00:40:03.902Z,99862.42
2022-09-06T00:40:13.889Z,99859.16
2022-09-06T00:40:23.911Z,99860.00
2022-09-06T00:40:33.933Z,99861.93
2022-09-06T00:40:43.966Z,99861.42
2022-09-06T00:40:53.943Z,99857.48
2022-09-06T00:41:03.951Z,99861.55
2022-09-06T00:41:13.901Z,99856.30
2022-09-06T00:41:23.945Z,99857.91
2022-09-06T00:41:33.976Z,99855.67
2022-09-06T00:41:43.960Z,99858.36
2022-09-06T00:41:53.878Z,99858.74
2022-09-06T00:42:03.867Z,99856.90
2022-09-06T00:42:13.971Z,99855.97
2022-09-06T00:42:23.921Z,99856.30
2022-09-06T00:42:33.942Z,99857.48
2022-09-06T00:42:43.892Z,99858.48
2022-09-06T00:42:53.935Z,99861.88
2022-09-06T00:43:03.846Z,99857.56
2022-09-06T00:43:13.962Z,99860.03
2022-09-06T00:43:23.873Z,99861.05
2022-09-06T00:43:33.890Z,99857.14
2022-09-06T00:43:43.978Z,99856.22
2022-09-06T00:43:53.924Z,99861.63
2022-09-06T00:44:03.913Z,99858.78
2022-09-06T00:44:13.975Z,99858.95
2022-09-06T00:44:23.972Z,99859.45
2022-09-06T00:44:33.900Z,99862.64
2022-09-06T00:44:43.970Z,99858.28
2022-09-06T00:44:53.980Z,99858.78
2022-09-06T00:45:03.889Z,99860.28
2022-09-06T00:45:13.916Z,99859.66
2022-09-06T00:45:23.922Z,99861.17
2022-09-06T00:45:33.882Z,99860.92
2022-09-06T00:45:43.882Z,99859.58
2022-09-06T00:45:53.993Z,99858.57
2022-09-06T00:46:03.985Z,99860.67
2022-09-06T00:46:14.073Z,99857.73
2022-09-06T00:46:23.981Z,99862.43
2022-09-06T00:46:34.039Z,99861.51
2022-09-06T00:46:44.013Z,99856.64
2022-09-06T00:46:53.951Z,99857.90
2022-09-06T00:47:03.866Z,99859.98
2022-09-06T00:47:13.959Z,99861.34
2022-09-06T00:47:23.946Z,99861.51
2022-09-06T00:47:33.873Z,99863.36
2022-09-06T00:47:43.957Z,99861.17
2022-09-06T00:47:53.853Z,99863.90
2022-09-06T00:48:03.938Z,99860.66
2022-09-06T00:48:13.958Z,99858.98
2022-09-06T00:48:24.001Z,99863.01
2022-09-06T00:48:33.875Z,99862.97
2022-09-06T00:48:43.868Z,99861.12
2022-09-06T00:48:53.967Z,99867.09
2022-09-06T00:49:03.864Z,99862.39
2022-09-06T00:49:13.906Z,99862.80
2022-09-06T00:49:23.940Z,99860.88
2022-09-06T00:49:33.934Z,99862.05
2022-09-06T00:49:43.892Z,99863.72
2022-09-06T00:49:53.927Z,99864.73
2022-09-06T00:50:03.858Z,99865.48
2022-09-06T00:50:13.947Z,99863.05
2022-09-06T00:50:23.965Z,99866.16
2022-09-06T00:50:33.925Z,99865.57
2022-09-06T00:50:43.965Z,99861.34
2022-09-06T00:50:53.893Z,99866.41
2022-09-06T00:51:03.845Z,99863.19
2022-09-06T00:51:13.874Z,99863.81
2022-09-06T00:51:23.974Z,99864.15
2022-09-06T00:51:33.940Z,99863.34
2022-09-06T00:51:43.888Z,99865.33
2022-09-06T00:51:53.944Z,99863.97
2022-09-06T00:52:03.877Z,99866.83
2022-09-06T00:52:13.921Z,99864.86
2022-09-06T00:52:23.873Z,99866.48
2022-09-06T00:52:33.954Z,99865.87
2022-09-06T00:52:43.857Z,99866.48
2022-09-06T00:52:53.915Z,99862.50
2022-09-06T00:53:03.890Z,99863.77
2022-09-06T00:53:13.968Z,99866.20
2022-09-06T00:53:23.985Z,99864.85
2022-09-06T00:53:33.925Z,99862.89
2022-09-06T00:53:43.868Z,99862.55
2022-09-06T00:53:53.903Z,99864.22
2022-09-06T00:54:03.926Z,99864.39
2022-09-06T00:54:13.897Z,99863.89
2022-09-06T00:54:23.885Z,99865.82
2022-09-06T00:54:33.956Z,99866.20
2022-09-06T00:54:43.932Z,99862.21
2022-09-06T00:54:53.973Z,99864.05
2022-09-06T00:55:03.864Z,99862.21
2022-09-06T00:55:13.888Z,99863.94
2022-09-06T00:55:23.874Z,99865.52
2022-09-06T00:55:33.876Z,99864.13
2022-09-06T00:55:43.914Z,99860.62
2022-09-06T00:55:53.952Z,99865.64
2022-09-06T00:56:03.950Z,99866.49
2022-09-06T00:56:13.906Z,99863.12
2022-09-06T00:56:23.925Z,99865.14
2022-09-06T00:56:33.957Z,99864.94
2022-09-06T00:56:43.915Z,99862.38
2022-09-06T00:56:53.905Z,99864.89
2022-09-06T00:57:03.893Z,99868.88
2022-09-06T00:57:13.916Z,99862.62
2022-09-06T00:57:23.860Z,99866.74
2022-09-06T00:57:33.924Z,99866.48
2022-09-06T00:57:43.874Z,99868.59
2022-09-06T00:57:53.941Z,99863.55
2022-09-06T00:58:03.909Z,99868.29
2022-09-06T00:58:13.948Z,99865.56
2022-09-06T00:58:23.955Z,99865.56
2022-09-06T00:58:33.866Z,99865.02
2022-09-06T00:58:43.964Z,99865.27
2022-09-06T00:58:53.919Z,99863.63
2022-09-06T00:59:03.906Z,99863.80
2022-09-06T00:59:13.922Z,99867.20
2022-09-06T00:59:23.946Z,99868.16
2022-09-06T00:59:33.898Z,99867.66
2022-09-06T00:59:43.887Z,99865.22
2022-09-06T00:59:53.956Z,99865.61
2022-09-06T01:00:03.882Z,99866.40
2022-09-06T01:00:13.901Z,99865.77
2022-09-06T01:00:23.937Z,99867.95
2022-09-06T01:00:33.931Z,99865.91
2022-09-06T01:00:43.979Z,99865.40
2022-09-06T01:00:53.880Z,99869.34
2022-09-06T01:01:03.928Z,99866.58
2022-09-06T01:01:14.050Z,99866.58
2022-09-06T01:01:23.986Z,99867.16
2022-09-06T01:01:33.944Z,99868.34
2022-09-06T01:01:44.110Z,99866.70
2022-09-06T01:01:54.057Z,99864.10
2022-09-06T01:02:04.170Z,99870.43
2022-09-06T01:02:14.157Z,99866.62
2022-09-06T01:02:24.126Z,99867.88
2022-09-06T01:02:34.059Z,99866.62
2022-09-06T01:02:44.007Z,99868.46
2022-09-06T01:02:54.011Z,99867.12
2022-09-06T01:03:03.865Z,99865.27
2022-09-06T01:03:13.852Z,99866.36
2022-09-06T01:03:23.906Z,99869.05
2022-09-06T01:03:33.951Z,99868.03
2022-09-06T01:03:45.919Z,99871.11
2022-09-06T01:03:53.924Z,99866.99
2022-09-06T01:04:03.914Z,99868.20
2022-09-06T01:04:13.967Z,99870.77
2022-09-06T01:04:23.887Z,99871.27
2022-09-06T01:04:33.866Z,99874.88
2022-09-06T01:04:43.870Z,99875.95
2022-09-06T01:04:53.965Z,99873.27
2022-09-06T01:05:03.847Z,99874.95
2022-09-06T01:05:13.937Z,99870.80
2022-09-06T01:05:23.926Z,99875.17
2022-09-06T01:05:33.904Z,99869.09
2022-09-06T01:05:43.858Z,99870.05
2022-09-06T01:05:54.673Z,99873.52
2022-09-06T01:06:03.885Z,99877.30
2022-09-06T01:06:13.882Z,99872.31
2022-09-06T01:06:23.862Z,99876.76
2022-09-06T01:06:33.874Z,99871.38
2022-09-06T01:06:43.878Z,99878.55
2022-09-06T01:06:53.926Z,99877.71
2022-09-06T01:07:03.854Z,99879.69
2022-09-06T01:07:13.925Z,99877.21
2022-09-06T01:07:23.910Z,99880.81
2022-09-06T01:07:33.963Z,99879.52
2022-09-06T01:07:43.880Z,99875.83
2022-09-06T01:07:53.877Z,99879.34
2022-09-06T01:08:03.872Z,99878.84
2022-09-06T01:08:13.886Z,99878.17
2022-09-06T01:08:23.940Z,99879.51
2022-09-06T01:08:33.961Z,99877.42
2022-09-06T01:08:43.917Z,99880.86
2022-09-06T01:08:53.875Z,99876.48
2022-09-06T01:09:03.939Z,99876.99
2022-09-06T01:09:13.976Z,99877.33
2022-09-06T01:09:23.941Z,99882.53
2022-09-06T01:09:33.938Z,99879.52
2022-09-06T01:09:43.847Z,99878.00
2022-09-06T01:09:53.928Z,99880.77
2022-09-06T01:10:03.959Z,99878.09
2022-09-06T01:10:13.878Z,99880.09
2022-09-06T01:10:23.961Z,99879.34
2022-09-06T01:10:33.911Z,99880.14
2022-09-06T01:10:43.941Z,99879.02
2022-09-06T01:10:53.901Z,99871.30
2022-09-06T01:11:03.848Z,99878.68
2022-09-06T01:11:13.867Z,99877.16
2022-09-06T01:11:23.967Z,99878.88
2022-09-06T01:11:33.851Z,99880.18
2022-09-06T01:11:43.981Z,99876.45
2022-09-06T01:11:53.921Z,99879.39
2022-09-06T01:12:03.931Z,99875.52
2022-09-06T01:12:13.970Z,99877.16
2022-09-06T01:12:23.848Z,99878.92
2022-09-06T01:12:33.856Z,99881.56
2022-09-06T01:12:43.897Z,99878.04
2022-09-06T01:12:53.957Z,99877.87
2022-09-06T01:13:03.927Z,99877.87
2022-09-06T01:13:13.867Z,99880.97
2022-09-06T01:13:23.872Z,99881.80
2022-09-06T01:13:33.966Z,99877.82
2022-09-06T01:13:43.884Z,99881.34
2022-09-06T01:13:53.971Z,99878.28
2022-09-06T01:14:03.861Z,99880.05
2022-09-06T01:14:13.844Z,99877.36
2022-09-06T01:14:23.917Z,99883.23
2022-09-06T01:14:33.885Z,99881.84
2022-09-06T01:14:43.917Z,99881.84
2022-09-06T01:14:53.907Z,99880.04
2022-09-06T01:15:03.954Z,99882.18
2022-09-06T01:15:13.909Z,99881.17
2022-09-06T01:15:23.916Z,99882.01
2022-09-06T01:15:33.973Z,99883.44
2022-09-06T01:15:44.023Z,99882.73
2022-09-06T01:15:54.013Z,99882.84
2022-09-06T01:16:04.018Z,99882.01
2022-09-06T01:16:14.070Z,99882.18
2022-09-06T01:16:23.860Z,99883.19
2022-09-06T01:16:33.925Z,99882.34
2022-09-06T01:16:43.920Z,99882.56
2022-09-06T01:16:53.879Z,99886.03
2022-09-06T01:17:03.933Z,99884.36
2022-09-06T01:17:13.879Z,99884.91
2022-09-06T01:17:23.914Z,99880.12
2022-09-06T01:17:33.957Z,99886.20
2022-09-06T01:17:43.904Z,99883.91
2022-09-06T01:17:53.900Z,99886.75
2022-09-06T01:18:03.918Z,99880.55
2022-09-06T01:18:13.908Z,99885.16
2022-09-06T01:18:23.948Z,99881.47
2022-09-06T01:18:33.883Z,99883.48
2022-09-06T01:18:43.909Z,99881.13
2022-09-06T01:18:53.952Z,99879.75
2022-09-06T01:19:03.881Z,99882.31
2022-09-06T01:19:13.919Z,99881.39
2022-09-06T01:19:23.924Z,99878.45
2022-09-06T01:19:33.861Z,99879.80
2022-09-06T01:19:43.949Z,99878.45
2022-09-06T01:19:53.945Z,99879.21
2022-09-06T01:20:03.888Z,99879.29
2022-09-06T01:20:13.846Z,99874.05
2022-09-06T01:20:23.886Z,99876.52
2022-09-06T01:20:33.855Z,99879.12
2022-09-06T01:20:43.924Z,99875.30
2022-09-06T01:20:53.939Z,99876.31
2022-09-06T01:21:03.949Z,99879.75
2022-09-06T01:21:13.899Z,99879.66
2022-09-06T01:21:23.954Z,99878.33
2022-09-06T01:21:33.940Z,99875.19
2022-09-06T01:21:43.940Z,99875.81
2022-09-06T01:21:53.959Z,99875.30
2022-09-06T01:22:03.866Z,99875.47
2022-09-06T01:22:13.983Z,99873.67
2022-09-06T01:22:23.952Z,99874.02
2022-09-06T01:22:33.959Z,99875.27
2022-09-06T01:22:43.933Z,99873.08
2022-09-06T01:22:53.884Z,99873.42
2022-09-06T01:23:03.871Z,99873.76
2022-09-06T01:23:13.968Z,99873.76
2022-09-06T01:23:23.958Z,99871.82
2022-09-06T01:23:33.968Z,99870.87
2022-09-06T01:23:43.879Z,99874.39
2022-09-06T01:23:53.938Z,99873.55
2022-09-06T01:24:03.970Z,99874.89
2022-09-06T01:24:13.928Z,99874.05
2022-09-06T01:24:23.951Z,99874.30
2022-09-06T01:24:33.899Z,99874.71
2022-09-06T01:24:43.974Z,99875.38
2022-09-06T01:24:53.964Z,99878.83
2022-09-06T01:25:03.960Z,99874.55
2022-09-06T01:25:13.857Z,99876.81
2022-09-06T01:25:23.909Z,99873.20
2022-09-06T01:25:33.963Z,99874.93
2022-09-06T01:25:43.971Z,99875.89
2022-09-06T01:25:58.827Z,99879.58
2022-09-06T01:26:03.851Z,99874.50
2022-09-06T01:26:13.941Z,99876.72
2022-09-06T01:26:23.964Z,99875.94
2022-09-06T01:26:33.965Z,99876.72
2022-09-06T01:26:43.950Z,99877.69
2022-09-06T01:26:53.890Z,99878.56
2022-09-06T01:27:03.921Z,99877.11
2022-09-06T01:27:13.953Z,99879.16
2022-09-06T01:27:23.949Z,99881.08
2022-09-06T01:27:33.862Z,99876.72
2022-09-06T01:27:43.899Z,99881.50
2022-09-06T01:27:53.914Z,99880.58
2022-09-06T01:28:03.959Z,99877.90
2022-09-06T01:28:13.846Z,99874.42
2022-09-06T01:28:23.903Z,99875.59
2022-09-06T01:28:33.918Z,99876.52
2022-09-06T01:28:43.936Z,99877.35
2022-09-06T01:28:53.950Z,99874.17
2022-09-06T01:29:03.894Z,99878.41
2022-09-06T01:29:13.882Z,99877.44
2022-09-06T01:29:23.920Z,99877.44
2022-09-06T01:29:33.878Z,99874.17
2022-09-06T01:29:43.951Z,99875.01
2022-09-06T01:29:53.851Z,99877.02
2022-09-06T01:30:03.887Z,99876.22
2022-09-06T01:30:13.864Z,99873.00
2022-09-06T01:30:23.923Z,99871.48
2022-09-06T01:30:34.035Z,99872.16
2022-09-06T01:30:43.954Z,99872.33
2022-09-06T01:30:53.966Z,99867.47
2022-09-06T01:31:03.960Z,99871.86
2022-09-06T01:31:14.035Z,99870.61
2022-09-06T01:31:23.886Z,99867.67
2022-09-06T01:31:36.013Z,99871.36
2022-09-06T01:31:43.882Z,99871.19
2022-09-06T01:31:53.914Z,99869.30
2022-09-06T01:32:03.918Z,99866.50
2022-09-06T01:32:13.859Z,99868.67
2022-09-06T01:32:23.931Z,99867.84
2022-09-06T01:32:33.860Z,99870.65
2022-09-06T01:32:43.874Z,99865.78
2022-09-06T01:32:53.852Z,99871.02
2022-09-06T01:33:03.907Z,99869.48
2022-09-06T01:33:13.965Z,99867.97
2022-09-06T01:33:23.886Z,99867.22
2022-09-06T01:33:33.966Z,99868.30
2022-09-06T01:33:43.908Z,99866.96
2022-09-06T01:33:53.891Z,99866.96
2022-09-06T01:34:03.923Z,99865.70
2022-09-06T01:34:13.946Z,99863.77
2022-09-06T01:34:23.892Z,99864.07
2022-09-06T01:34:33.863Z,99865.12
2022-09-06T01:34:43.958Z,99867.04
2022-09-06T01:34:53.889Z,99864.03
2022-09-06T01:35:03.953Z,99866.38
2022-09-06T01:35:13.885Z,99870.23
2022-09-06T01:35:23.964Z,99866.04
2022-09-06T01:35:33.856Z,99864.20
2022-09-06T01:35:43.898Z,99867.72
2022-09-06T01:35:53.899Z,99864.11
2022-09-06T01:36:03.953Z,99867.71
2022-09-06T01:36:13.938Z,99866.83
2022-09-06T01:36:23.922Z,99866.62
2022-09-06T01:36:33.862Z,99864.91
2022-09-06T01:37:06.201Z,99863.48
2022-09-06T01:37:09.514Z,99863.81
2022-09-06T01:37:10.318Z,99864.07
2022-09-06T01:37:13.853Z,99862.47
2022-09-06T01:37:23.913Z,99862.97
2022-09-06T01:37:33.900Z,99863.61
2022-09-06T01:37:43.916Z,99864.23
2022-09-06T01:37:53.968Z,99859.66
2022-09-06T01:38:03.946Z,99857.41
2022-09-06T01:38:13.882Z,99862.42
2022-09-06T01:38:23.905Z,99863.10
2022-09-06T01:38:33.870Z,99858.11
2022-09-06T01:38:43.939Z,99863.52
2022-09-06T01:38:53.891Z,99861.20
2022-09-06T01:39:03.967Z,99859.20
2022-09-06T01:39:13.885Z,99865.56
2022-09-06T01:39:23.907Z,99860.08
2022-09-06T01:39:34.033Z,99861.00
2022-09-06T01:39:43.988Z,99860.33
2022-09-06T01:39:53.950Z,99864.89
2022-09-06T01:40:04.060Z,99865.90
2022-09-06T01:40:13.962Z,99867.41
2022-09-06T01:40:23.930Z,99863.18
2022-09-06T01:40:33.903Z,99864.86
2022-09-06T01:40:43.973Z,99860.83
2022-09-06T01:40:53.972Z,99861.75
2022-09-06T01:41:03.868Z,99861.50
2022-09-06T01:41:13.953Z,99861.99
2022-09-06T01:41:23.885Z,99862.12
2022-09-06T01:41:33.877Z,99864.77
2022-09-06T01:41:43.862Z,99865.52
2022-09-06T01:41:53.885Z,99865.19
2022-09-06T01:42:03.887Z,99860.45
2022-09-06T01:42:13.970Z,99863.55
2022-09-06T01:42:23.871Z,99863.55
2022-09-06T01:42:33.908Z,99864.02
2022-09-06T01:42:43.853Z,99861.67
2022-09-06T01:42:53.942Z,99865.52
2022-09-06T01:43:06.901Z,99864.02
2022-09-06T01:43:13.925Z,99864.86
2022-09-06T01:43:23.904Z,99863.69
2022-09-06T01:43:33.908Z,99862.34
2022-09-06T01:43:43.854Z,99861.92
2022-09-06T01:43:53.855Z,99864.52
2022-09-06T01:44:03.928Z,99861.25
2022-09-06T01:44:13.857Z,99862.83
2022-09-06T01:44:23.942Z,99862.67
2022-09-06T01:44:33.909Z,99864.27
2022-09-06T01:44:43.848Z,99863.12
2022-09-06T01:44:53.919Z,99863.89
2022-09-06T01:45:03.845Z,99867.11
2022-09-06T01:45:13.978Z,99864.69
2022-09-06T01:45:23.915Z,99862.05
2022-09-06T01:45:33.858Z,99865.10
2022-09-06T01:45:44.061Z,99862.16
2022-09-06T01:45:53.925Z,99865.14
2022-09-06T01:46:03.984Z,99864.13
2022-09-06T01:46:13.962Z,99863.55
2022-09-06T01:46:24.017Z,99866.86
2022-09-06T01:46:34.027Z,99867.95
2022-09-06T01:46:43.951Z,99862.88
2022-09-06T01:46:53.854Z,99864.59
2022-09-06T01:47:03.929Z,99864.09
2022-09-06T01:47:13.868Z,99864.25
2022-09-06T01:47:23.864Z,99864.94
2022-09-06T01:47:33.858Z,99860.91
2022-09-06T01:47:43.849Z,99865.52
2022-09-06T01:47:53.968Z,99861.11
2022-09-06T01:48:03.959Z,99864.75
2022-09-06T01:48:13.964Z,99862.70
2022-09-06T01:48:23.917Z,99863.12
2022-09-06T01:48:38.397Z,99862.20
2022-09-06T01:48:43.855Z,99861.66
2022-09-06T01:48:53.908Z,99859.97
2022-09-06T01:49:03.949Z,99863.16
2022-09-06T01:49:13.940Z,99864.16
2022-09-06T01:49:23.896Z,99863.45
2022-09-06T01:49:33.956Z,99863.37
2022-09-06T01:49:43.956Z,99865.12
2022-09-06T01:49:53.967Z,99865.72
2022-09-06T01:50:03.927Z,99863.52
2022-09-06T01:50:13.901Z,99864.16
2022-09-06T01:50:23.942Z,99860.38
2022-09-06T01:50:33.899Z,99861.27
2022-09-06T01:50:43.947Z,99863.90
2022-09-06T01:50:53.972Z,99870.31
2022-09-06T01:51:03.924Z,99862.27
2022-09-06T01:51:13.874Z,99864.07
2022-09-06T01:51:23.915Z,99867.25
2022-09-06T01:51:33.964Z,99867.59
2022-09-06T01:51:43.936Z,99865.28
2022-09-06T01:51:53.857Z,99861.84
2022-09-06T01:52:03.942Z,99866.97
2022-09-06T01:52:13.957Z,99861.42
2022-09-06T01:52:23.910Z,99867.72
2022-09-06T01:52:33.961Z,99863.69
2022-09-06T01:52:43.969Z,99867.38
2022-09-06T01:52:53.856Z,99868.55
2022-09-06T01:53:03.929Z,99867.38
2022-09-06T01:53:13.886Z,99868.52
2022-09-06T01:53:23.964Z,99866.45
2022-09-06T01:53:33.848Z,99868.30
2022-09-06T01:53:43.856Z,99864.14
2022-09-06T01:53:53.909Z,99862.80
2022-09-06T01:54:03.925Z,99869.97
2022-09-06T01:54:13.892Z,99862.80
2022-09-06T01:54:23.941Z,99862.12
2022-09-06T01:54:33.866Z,99864.10
2022-09-06T01:54:43.877Z,99863.35
2022-09-06T01:54:53.967Z,99860.49
2022-09-06T01:55:03.957Z,99862.93
2022-09-06T01:55:13.906Z,99862.30
2022-09-06T01:55:23.860Z,99862.89
2022-09-06T01:55:33.952Z,99864.39
2022-09-06T01:55:43.941Z,99868.03
2022-09-06T01:55:53.871Z,99861.21
2022-09-06T01:56:03.930Z,99861.80
2022-09-06T01:56:13.908Z,99862.55
2022-09-06T01:56:23.968Z,99867.41
2022-09-06T01:56:33.893Z,99863.55
2022-09-06T01:56:43.857Z,99865.06
2022-09-06T01:56:53.883Z,99864.84
2022-09-06T01:57:03.952Z,99864.52
2022-09-06T01:57:13.856Z,99862.62
2022-09-06T01:57:23.966Z,99861.45